sensor_id;sensor_type;location;lat;lon;timestamp;temperature;humidity
14370;DHT22;7268;50.792;0.252;2023-05-07T00:01:23;13.30;93.50
14370;DHT22;7268;50.792;0.252;2023-05-07T00:03:53;13.30;93.60
14370;DHT22;7268;50.792;0.252;2023-05-07T00:06:27;13.30;93.50
14370;DHT22;7268;50.792;0.252;2023-05-07T00:08:59;13.30;93.40
14370;DHT22;7268;50.792;0.252;2023-05-07T00:11:27;13.30;93.60
14370;DHT22;7268;50.792;0.252;2023-05-07T00:14:00;13.20;93.60
14370;DHT22;7268;50.792;0.252;2023-05-07T00:16:37;13.20;93.40
14370;DHT22;7268;50.792;0.252;2023-05-07T00:19:04;13.10;93.50
14370;DHT22;7268;50.792;0.252;2023-05-07T00:21:32;13.00;93.80
14370;DHT22;7268;50.792;0.252;2023-05-07T00:24:01;13.00;93.60
14370;DHT22;7268;50.792;0.252;2023-05-07T00:26:28;12.80;93.70
14370;DHT22;7268;50.792;0.252;2023-05-07T00:28:55;12.90;94.00
14370;DHT22;7268;50.792;0.252;2023-05-07T00:31:22;12.70;93.80
14370;DHT22;7268;50.792;0.252;2023-05-07T00:33:49;12.80;94.10
14370;DHT22;7268;50.792;0.252;2023-05-07T00:36:20;12.70;94.40
14370;DHT22;7268;50.792;0.252;2023-05-07T00:38:50;12.80;94.30
14370;DHT22;7268;50.792;0.252;2023-05-07T00:41:23;12.80;94.10
14370;DHT22;7268;50.792;0.252;2023-05-07T00:43:51;12.80;94.40
14370;DHT22;7268;50.792;0.252;2023-05-07T00:46:21;12.80;94.40
14370;DHT22;7268;50.792;0.252;2023-05-07T00:49:02;12.80;94.30
14370;DHT22;7268;50.792;0.252;2023-05-07T00:51:30;12.80;94.40
14370;DHT22;7268;50.792;0.252;2023-05-07T00:53:57;12.80;94.30
14370;DHT22;7268;50.792;0.252;2023-05-07T00:56:27;12.90;94.50
14370;DHT22;7268;50.792;0.252;2023-05-07T00:58:55;12.80;94.60
14370;DHT22;7268;50.792;0.252;2023-05-07T01:01:27;12.90;94.60
14370;DHT22;7268;50.792;0.252;2023-05-07T01:03:54;12.90;95.00
14370;DHT22;7268;50.792;0.252;2023-05-07T01:06:24;12.80;94.50
14370;DHT22;7268;50.792;0.252;2023-05-07T01:08:54;12.90;94.70
14370;DHT22;7268;50.792;0.252;2023-05-07T01:11:23;13.00;94.80
14370;DHT22;7268;50.792;0.252;2023-05-07T01:13:51;13.00;94.90
14370;DHT22;7268;50.792;0.252;2023-05-07T01:16:18;13.00;94.90
14370;DHT22;7268;50.792;0.252;2023-05-07T01:18:49;13.00;94.80
14370;DHT22;7268;50.792;0.252;2023-05-07T01:21:17;13.00;94.80
14370;DHT22;7268;50.792;0.252;2023-05-07T01:23:45;13.10;94.90
14370;DHT22;7268;50.792;0.252;2023-05-07T01:26:16;13.10;94.90
14370;DHT22;7268;50.792;0.252;2023-05-07T01:28:51;13.20;95.00
14370;DHT22;7268;50.792;0.252;2023-05-07T01:31:19;13.20;94.90
14370;DHT22;7268;50.792;0.252;2023-05-07T01:33:48;13.20;94.90
14370;DHT22;7268;50.792;0.252;2023-05-07T01:36:17;13.30;94.90
14370;DHT22;7268;50.792;0.252;2023-05-07T01:38:45;13.30;94.90
14370;DHT22;7268;50.792;0.252;2023-05-07T01:41:16;13.20;94.80
14370;DHT22;7268;50.792;0.252;2023-05-07T01:43:44;13.30;94.90
14370;DHT22;7268;50.792;0.252;2023-05-07T01:46:15;13.20;94.80
14370;DHT22;7268;50.792;0.252;2023-05-07T01:48:45;13.30;94.80
14370;DHT22;7268;50.792;0.252;2023-05-07T01:51:31;13.40;94.90
14370;DHT22;7268;50.792;0.252;2023-05-07T01:54:03;13.40;94.80
14370;DHT22;7268;50.792;0.252;2023-05-07T01:56:32;13.40;94.70
14370;DHT22;7268;50.792;0.252;2023-05-07T01:58:59;13.40;94.80
14370;DHT22;7268;50.792;0.252;2023-05-07T02:01:27;13.40;94.90
14370;DHT22;7268;50.792;0.252;2023-05-07T02:03:55;13.40;94.80
14370;DHT22;7268;50.792;0.252;2023-05-07T02:06:36;13.40;94.80
14370;DHT22;7268;50.792;0.252;2023-05-07T02:09:13;13.40;94.90
14370;DHT22;7268;50.792;0.252;2023-05-07T02:11:50;13.40;94.80
14370;DHT22;7268;50.792;0.252;2023-05-07T02:14:22;13.40;94.80
14370;DHT22;7268;50.792;0.252;2023-05-07T02:16:55;13.40;94.80
14370;DHT22;7268;50.792;0.252;2023-05-07T02:19:24;13.40;94.90
14370;DHT22;7268;50.792;0.252;2023-05-07T02:21:54;13.40;94.90
14370;DHT22;7268;50.792;0.252;2023-05-07T02:24:29;13.40;94.80
14370;DHT22;7268;50.792;0.252;2023-05-07T02:27:01;13.40;94.80
14370;DHT22;7268;50.792;0.252;2023-05-07T02:29:30;13.40;94.90
14370;DHT22;7268;50.792;0.252;2023-05-07T02:32:01;13.40;95.00
14370;DHT22;7268;50.792;0.252;2023-05-07T02:34:31;13.30;94.70
14370;DHT22;7268;50.792;0.252;2023-05-07T02:37:04;13.40;94.60
14370;DHT22;7268;50.792;0.252;2023-05-07T02:39:34;13.30;94.60
14370;DHT22;7268;50.792;0.252;2023-05-07T02:42:01;13.20;94.60
14370;DHT22;7268;50.792;0.252;2023-05-07T02:44:29;13.20;94.60
14370;DHT22;7268;50.792;0.252;2023-05-07T02:47:00;13.20;94.60
14370;DHT22;7268;50.792;0.252;2023-05-07T02:49:30;13.10;94.60
14370;DHT22;7268;50.792;0.252;2023-05-07T02:52:00;13.10;94.70
14370;DHT22;7268;50.792;0.252;2023-05-07T02:54:27;13.00;94.70
14370;DHT22;7268;50.792;0.252;2023-05-07T02:56:58;12.90;94.80
14370;DHT22;7268;50.792;0.252;2023-05-07T02:59:27;12.90;94.80
14370;DHT22;7268;50.792;0.252;2023-05-07T03:02:00;12.90;95.00
14370;DHT22;7268;50.792;0.252;2023-05-07T03:04:29;13.00;94.90
14370;DHT22;7268;50.792;0.252;2023-05-07T03:06:57;13.00;94.90
14370;DHT22;7268;50.792;0.252;2023-05-07T03:09:25;13.00;95.00
14370;DHT22;7268;50.792;0.252;2023-05-07T03:11:56;13.00;95.00
14370;DHT22;7268;50.792;0.252;2023-05-07T03:14:27;12.90;94.90
14370;DHT22;7268;50.792;0.252;2023-05-07T03:17:04;13.00;95.00
14370;DHT22;7268;50.792;0.252;2023-05-07T03:20:03;13.00;95.00
14370;DHT22;7268;50.792;0.252;2023-05-07T03:22:36;12.90;95.10
14370;DHT22;7268;50.792;0.252;2023-05-07T03:25:23;12.90;95.10
14370;DHT22;7268;50.792;0.252;2023-05-07T03:32:21;13.00;95.10
14370;DHT22;7268;50.792;0.252;2023-05-07T03:35:13;12.90;95.00
14370;DHT22;7268;50.792;0.252;2023-05-07T03:38:00;12.90;94.90
14370;DHT22;7268;50.792;0.252;2023-05-07T03:40:54;12.80;94.60
14370;DHT22;7268;50.792;0.252;2023-05-07T03:43:24;12.70;94.50
14370;DHT22;7268;50.792;0.252;2023-05-07T03:46:22;12.60;94.50
14370;DHT22;7268;50.792;0.252;2023-05-07T03:52:38;12.30;94.50
14370;DHT22;7268;50.792;0.252;2023-05-07T03:55:14;12.10;94.50
14370;DHT22;7268;50.792;0.252;2023-05-07T03:57:50;12.10;94.80
14370;DHT22;7268;50.792;0.252;2023-05-07T04:04:28;12.00;95.00
14370;DHT22;7268;50.792;0.252;2023-05-07T04:07:05;11.90;94.80
14370;DHT22;7268;50.792;0.252;2023-05-07T04:09:35;11.90;94.90
14370;DHT22;7268;50.792;0.252;2023-05-07T04:14:37;11.80;94.80
14370;DHT22;7268;50.792;0.252;2023-05-07T04:17:05;11.70;94.80
14370;DHT22;7268;50.792;0.252;2023-05-07T04:19:35;11.60;95.00
14370;DHT22;7268;50.792;0.252;2023-05-07T04:22:05;11.60;94.70
14370;DHT22;7268;50.792;0.252;2023-05-07T04:24:32;11.60;94.70
14370;DHT22;7268;50.792;0.252;2023-05-07T04:27:12;11.50;94.80
14370;DHT22;7268;50.792;0.252;2023-05-07T04:29:40;11.40;94.90
14370;DHT22;7268;50.792;0.252;2023-05-07T04:32:09;11.40;95.00
14370;DHT22;7268;50.792;0.252;2023-05-07T04:34:37;11.40;95.00
14370;DHT22;7268;50.792;0.252;2023-05-07T04:37:04;11.30;95.00
14370;DHT22;7268;50.792;0.252;2023-05-07T04:39:32;11.40;95.60
14370;DHT22;7268;50.792;0.252;2023-05-07T04:42:05;11.40;95.30
14370;DHT22;7268;50.792;0.252;2023-05-07T04:44:35;11.30;95.30
14370;DHT22;7268;50.792;0.252;2023-05-07T04:47:04;11.50;95.50
14370;DHT22;7268;50.792;0.252;2023-05-07T04:49:34;11.60;95.80
14370;DHT22;7268;50.792;0.252;2023-05-07T04:52:07;11.50;95.50
14370;DHT22;7268;50.792;0.252;2023-05-07T04:54:37;11.50;95.30
14370;DHT22;7268;50.792;0.252;2023-05-07T04:57:10;11.60;95.60
14370;DHT22;7268;50.792;0.252;2023-05-07T04:59:37;11.60;95.60
14370;DHT22;7268;50.792;0.252;2023-05-07T05:02:07;11.70;96.00
14370;DHT22;7268;50.792;0.252;2023-05-07T05:04:38;11.80;96.10
14370;DHT22;7268;50.792;0.252;2023-05-07T05:07:15;11.90;96.40
14370;DHT22;7268;50.792;0.252;2023-05-07T05:11:00;11.90;96.20
14370;DHT22;7268;50.792;0.252;2023-05-07T05:25:35;12.10;96.70
14370;DHT22;7268;50.792;0.252;2023-05-07T05:32:00;12.10;96.30
14370;DHT22;7268;50.792;0.252;2023-05-07T05:35:39;12.00;96.20
14370;DHT22;7268;50.792;0.252;2023-05-07T05:38:18;12.10;96.30
14370;DHT22;7268;50.792;0.252;2023-05-07T05:40:54;11.90;96.10
14370;DHT22;7268;50.792;0.252;2023-05-07T05:43:25;12.00;96.10
14370;DHT22;7268;50.792;0.252;2023-05-07T05:45:52;12.00;96.50
14370;DHT22;7268;50.792;0.252;2023-05-07T05:48:19;12.20;96.70
14370;DHT22;7268;50.792;0.252;2023-05-07T05:50:49;12.30;97.70
14370;DHT22;7268;50.792;0.252;2023-05-07T05:53:18;12.40;97.00
14370;DHT22;7268;50.792;0.252;2023-05-07T05:55:45;12.60;97.50
14370;DHT22;7268;50.792;0.252;2023-05-07T05:58:12;12.80;97.60
14370;DHT22;7268;50.792;0.252;2023-05-07T06:00:39;13.10;97.50
14370;DHT22;7268;50.792;0.252;2023-05-07T06:03:06;13.30;97.20
14370;DHT22;7268;50.792;0.252;2023-05-07T06:05:33;13.50;95.90
14370;DHT22;7268;50.792;0.252;2023-05-07T06:08:00;13.60;95.10
14370;DHT22;7268;50.792;0.252;2023-05-07T06:10:30;13.50;93.60
14370;DHT22;7268;50.792;0.252;2023-05-07T06:12:57;13.60;94.40
14370;DHT22;7268;50.792;0.252;2023-05-07T06:15:25;13.90;93.90
14370;DHT22;7268;50.792;0.252;2023-05-07T06:17:54;13.80;92.40
14370;DHT22;7268;50.792;0.252;2023-05-07T06:20:24;13.90;92.80
14370;DHT22;7268;50.792;0.252;2023-05-07T06:22:51;14.20;92.40
14370;DHT22;7268;50.792;0.252;2023-05-07T06:25:19;14.50;92.20
14370;DHT22;7268;50.792;0.252;2023-05-07T06:27:50;14.10;90.70
14370;DHT22;7268;50.792;0.252;2023-05-07T06:30:20;13.90;91.40
14370;DHT22;7268;50.792;0.252;2023-05-07T06:32:47;13.80;91.70
14370;DHT22;7268;50.792;0.252;2023-05-07T06:35:18;13.80;91.70
14370;DHT22;7268;50.792;0.252;2023-05-07T06:37:45;13.70;92.00
14370;DHT22;7268;50.792;0.252;2023-05-07T06:40:12;13.50;92.20
14370;DHT22;7268;50.792;0.252;2023-05-07T06:42:39;13.40;92.60
14370;DHT22;7268;50.792;0.252;2023-05-07T06:45:08;13.40;92.50
14370;DHT22;7268;50.792;0.252;2023-05-07T06:47:35;13.20;92.90
14370;DHT22;7268;50.792;0.252;2023-05-07T06:50:03;13.30;93.60
14370;DHT22;7268;50.792;0.252;2023-05-07T06:52:30;13.60;93.10
14370;DHT22;7268;50.792;0.252;2023-05-07T06:54:57;13.80;92.10
14370;DHT22;7268;50.792;0.252;2023-05-07T06:57:24;14.00;92.70
14370;DHT22;7268;50.792;0.252;2023-05-07T06:59:51;14.30;92.20
14370;DHT22;7268;50.792;0.252;2023-05-07T07:02:18;14.40;90.80
14370;DHT22;7268;50.792;0.252;2023-05-07T07:04:45;14.40;90.80
14370;DHT22;7268;50.792;0.252;2023-05-07T07:07:37;14.70;90.80
14370;DHT22;7268;50.792;0.252;2023-05-07T07:10:05;14.90;89.10
14370;DHT22;7268;50.792;0.252;2023-05-07T07:12:32;15.00;87.90
14370;DHT22;7268;50.792;0.252;2023-05-07T07:15:04;14.80;88.50
14370;DHT22;7268;50.792;0.252;2023-05-07T07:17:31;14.50;90.00
14370;DHT22;7268;50.792;0.252;2023-05-07T07:19:58;14.10;90.70
14370;DHT22;7268;50.792;0.252;2023-05-07T07:22:26;13.90;90.80
14370;DHT22;7268;50.792;0.252;2023-05-07T07:24:53;13.80;91.30
14370;DHT22;7268;50.792;0.252;2023-05-07T07:27:22;13.90;91.50
14370;DHT22;7268;50.792;0.252;2023-05-07T07:30:28;13.90;91.70
14370;DHT22;7268;50.792;0.252;2023-05-07T07:33:21;13.90;91.40
14370;DHT22;7268;50.792;0.252;2023-05-07T07:35:48;13.90;91.70
14370;DHT22;7268;50.792;0.252;2023-05-07T07:38:15;14.10;91.50
14370;DHT22;7268;50.792;0.252;2023-05-07T07:40:42;14.00;90.90
14370;DHT22;7268;50.792;0.252;2023-05-07T07:43:10;14.10;91.10
14370;DHT22;7268;50.792;0.252;2023-05-07T07:45:37;14.10;91.30
14370;DHT22;7268;50.792;0.252;2023-05-07T07:48:06;14.00;91.60
14370;DHT22;7268;50.792;0.252;2023-05-07T07:50:33;14.10;91.70
14370;DHT22;7268;50.792;0.252;2023-05-07T07:53:11;14.00;91.30
14370;DHT22;7268;50.792;0.252;2023-05-07T07:55:41;14.00;91.40
14370;DHT22;7268;50.792;0.252;2023-05-07T07:58:08;14.10;91.60
14370;DHT22;7268;50.792;0.252;2023-05-07T08:00:35;14.20;91.20
14370;DHT22;7268;50.792;0.252;2023-05-07T08:03:02;14.10;90.80
14370;DHT22;7268;50.792;0.252;2023-05-07T08:05:30;13.90;91.30
14370;DHT22;7268;50.792;0.252;2023-05-07T08:07:56;13.80;91.30
14370;DHT22;7268;50.792;0.252;2023-05-07T08:10:23;13.80;91.50
14370;DHT22;7268;50.792;0.252;2023-05-07T08:12:50;13.90;91.60
14370;DHT22;7268;50.792;0.252;2023-05-07T08:15:17;13.90;91.70
14370;DHT22;7268;50.792;0.252;2023-05-07T08:17:44;14.10;91.40
14370;DHT22;7268;50.792;0.252;2023-05-07T08:20:14;14.20;90.90
14370;DHT22;7268;50.792;0.252;2023-05-07T08:22:40;14.20;91.10
14370;DHT22;7268;50.792;0.252;2023-05-07T08:25:08;14.40;91.00
14370;DHT22;7268;50.792;0.252;2023-05-07T08:27:35;14.40;90.30
14370;DHT22;7268;50.792;0.252;2023-05-07T08:30:03;14.50;90.00
14370;DHT22;7268;50.792;0.252;2023-05-07T08:32:30;14.20;90.20
14370;DHT22;7268;50.792;0.252;2023-05-07T08:34:57;14.00;90.60
14370;DHT22;7268;50.792;0.252;2023-05-07T08:37:24;14.20;90.70
14370;DHT22;7268;50.792;0.252;2023-05-07T08:39:51;14.20;90.70
14370;DHT22;7268;50.792;0.252;2023-05-07T08:42:18;14.10;90.60
14370;DHT22;7268;50.792;0.252;2023-05-07T08:44:48;14.30;90.50
14370;DHT22;7268;50.792;0.252;2023-05-07T08:47:20;14.30;90.30
14370;DHT22;7268;50.792;0.252;2023-05-07T08:49:49;14.40;90.50
14370;DHT22;7268;50.792;0.252;2023-05-07T08:52:26;14.50;90.00
14370;DHT22;7268;50.792;0.252;2023-05-07T08:55:08;14.50;89.60
14370;DHT22;7268;50.792;0.252;2023-05-07T08:57:38;14.40;90.00
14370;DHT22;7268;50.792;0.252;2023-05-07T09:00:19;14.40;90.20
14370;DHT22;7268;50.792;0.252;2023-05-07T09:03:03;14.50;90.10
14370;DHT22;7268;50.792;0.252;2023-05-07T09:05:30;14.50;90.40
14370;DHT22;7268;50.792;0.252;2023-05-07T09:07:59;14.90;90.30
14370;DHT22;7268;50.792;0.252;2023-05-07T09:10:33;15.20;88.70
14370;DHT22;7268;50.792;0.252;2023-05-07T09:13:00;15.50;88.00
14370;DHT22;7268;50.792;0.252;2023-05-07T09:15:31;15.60;86.20
14370;DHT22;7268;50.792;0.252;2023-05-07T09:18:03;15.60;86.20
14370;DHT22;7268;50.792;0.252;2023-05-07T09:20:44;15.50;87.60
14370;DHT22;7268;50.792;0.252;2023-05-07T09:23:14;15.70;86.70
14370;DHT22;7268;50.792;0.252;2023-05-07T09:25:43;15.70;86.00
14370;DHT22;7268;50.792;0.252;2023-05-07T09:28:10;15.70;86.80
14370;DHT22;7268;50.792;0.252;2023-05-07T09:30:37;15.90;87.50
14370;DHT22;7268;50.792;0.252;2023-05-07T09:33:04;16.00;84.90
14370;DHT22;7268;50.792;0.252;2023-05-07T09:35:34;16.10;85.20
14370;DHT22;7268;50.792;0.252;2023-05-07T09:38:11;16.20;85.20
14370;DHT22;7268;50.792;0.252;2023-05-07T09:40:45;16.20;84.60
14370;DHT22;7268;50.792;0.252;2023-05-07T09:43:16;16.20;84.40
14370;DHT22;7268;50.792;0.252;2023-05-07T09:45:43;16.60;83.70
14370;DHT22;7268;50.792;0.252;2023-05-07T09:48:23;16.50;82.50
14370;DHT22;7268;50.792;0.252;2023-05-07T09:50:55;16.40;81.90
14370;DHT22;7268;50.792;0.252;2023-05-07T09:53:24;16.50;83.60
14370;DHT22;7268;50.792;0.252;2023-05-07T09:55:53;16.80;82.70
14370;DHT22;7268;50.792;0.252;2023-05-07T09:58:21;16.70;82.30
14370;DHT22;7268;50.792;0.252;2023-05-07T10:00:53;16.80;81.60
14370;DHT22;7268;50.792;0.252;2023-05-07T10:03:24;16.80;82.10
14370;DHT22;7268;50.792;0.252;2023-05-07T10:05:53;16.80;81.90
14370;DHT22;7268;50.792;0.252;2023-05-07T10:08:23;16.80;80.70
14370;DHT22;7268;50.792;0.252;2023-05-07T10:10:50;16.80;80.50
14370;DHT22;7268;50.792;0.252;2023-05-07T10:13:19;16.60;81.90
14370;DHT22;7268;50.792;0.252;2023-05-07T10:15:49;16.40;82.10
14370;DHT22;7268;50.792;0.252;2023-05-07T10:18:16;16.80;83.10
14370;DHT22;7268;50.792;0.252;2023-05-07T10:20:45;16.80;81.90
14370;DHT22;7268;50.792;0.252;2023-05-07T10:23:19;17.00;82.10
14370;DHT22;7268;50.792;0.252;2023-05-07T10:25:50;17.00;80.20
14370;DHT22;7268;50.792;0.252;2023-05-07T10:28:30;17.10;81.50
14370;DHT22;7268;50.792;0.252;2023-05-07T10:33:31;17.00;81.60
14370;DHT22;7268;50.792;0.252;2023-05-07T10:36:02;17.00;81.70
14370;DHT22;7268;50.792;0.252;2023-05-07T10:38:31;17.20;80.00
14370;DHT22;7268;50.792;0.252;2023-05-07T10:41:01;17.00;79.80
14370;DHT22;7268;50.792;0.252;2023-05-07T10:43:40;16.90;80.90
14370;DHT22;7268;50.792;0.252;2023-05-07T10:46:13;17.20;81.50
14370;DHT22;7268;50.792;0.252;2023-05-07T10:51:31;17.70;78.10
14370;DHT22;7268;50.792;0.252;2023-05-07T10:56:41;18.40;77.30
14370;DHT22;7268;50.792;0.252;2023-05-07T11:04:17;17.90;75.60
14370;DHT22;7268;50.792;0.252;2023-05-07T11:07:28;17.80;76.30
14370;DHT22;7268;50.792;0.252;2023-05-07T11:10:01;18.00;75.90
14370;DHT22;7268;50.792;0.252;2023-05-07T11:15:09;18.50;74.70
14370;DHT22;7268;50.792;0.252;2023-05-07T11:17:54;18.20;75.30
14370;DHT22;7268;50.792;0.252;2023-05-07T11:26:06;17.40;79.60
14370;DHT22;7268;50.792;0.252;2023-05-07T11:28:41;17.40;78.80
14370;DHT22;7268;50.792;0.252;2023-05-07T11:31:09;17.40;78.60
14370;DHT22;7268;50.792;0.252;2023-05-07T11:33:38;17.30;79.80
14370;DHT22;7268;50.792;0.252;2023-05-07T11:36:07;17.30;79.60
14370;DHT22;7268;50.792;0.252;2023-05-07T11:38:35;17.10;80.90
14370;DHT22;7268;50.792;0.252;2023-05-07T11:41:03;17.00;79.40
14370;DHT22;7268;50.792;0.252;2023-05-07T11:43:32;17.20;80.80
14370;DHT22;7268;50.792;0.252;2023-05-07T11:46:10;17.50;79.10
14370;DHT22;7268;50.792;0.252;2023-05-07T11:48:38;17.40;77.70
14370;DHT22;7268;50.792;0.252;2023-05-07T11:51:06;17.50;78.30
14370;DHT22;7268;50.792;0.252;2023-05-07T11:53:40;17.90;76.80
14370;DHT22;7268;50.792;0.252;2023-05-07T11:56:12;17.70;75.90
14370;DHT22;7268;50.792;0.252;2023-05-07T11:58:40;17.80;76.50
14370;DHT22;7268;50.792;0.252;2023-05-07T12:01:09;18.00;77.10
14370;DHT22;7268;50.792;0.252;2023-05-07T12:03:36;18.60;76.70
14370;DHT22;7268;50.792;0.252;2023-05-07T12:06:08;19.10;73.00
14370;DHT22;7268;50.792;0.252;2023-05-07T12:08:40;19.10;73.00
14370;DHT22;7268;50.792;0.252;2023-05-07T12:11:42;18.90;72.60
14370;DHT22;7268;50.792;0.252;2023-05-07T12:14:01;18.90;75.70
14370;DHT22;7268;50.792;0.252;2023-05-07T12:16:30;19.20;73.10
14370;DHT22;7268;50.792;0.252;2023-05-07T12:18:58;18.70;72.60
14370;DHT22;7268;50.792;0.252;2023-05-07T12:21:26;19.00;74.20
14370;DHT22;7268;50.792;0.252;2023-05-07T12:23:53;18.60;73.40
14370;DHT22;7268;50.792;0.252;2023-05-07T12:26:20;18.40;74.40
14370;DHT22;7268;50.792;0.252;2023-05-07T12:28:47;18.30;76.10
14370;DHT22;7268;50.792;0.252;2023-05-07T12:31:14;18.20;75.60
14370;DHT22;7268;50.792;0.252;2023-05-07T12:33:43;18.30;76.50
14370;DHT22;7268;50.792;0.252;2023-05-07T12:36:12;18.30;76.10
14370;DHT22;7268;50.792;0.252;2023-05-07T12:38:51;18.30;74.90
14370;DHT22;7268;50.792;0.252;2023-05-07T12:41:18;18.00;76.60
14370;DHT22;7268;50.792;0.252;2023-05-07T12:43:45;18.10;77.10
14370;DHT22;7268;50.792;0.252;2023-05-07T12:46:12;18.30;76.30
14370;DHT22;7268;50.792;0.252;2023-05-07T12:48:45;18.40;75.30
14370;DHT22;7268;50.792;0.252;2023-05-07T12:51:15;18.50;75.90
14370;DHT22;7268;50.792;0.252;2023-05-07T12:53:42;18.40;74.90
14370;DHT22;7268;50.792;0.252;2023-05-07T12:56:12;18.70;76.40
14370;DHT22;7268;50.792;0.252;2023-05-07T12:58:42;19.00;74.20
14370;DHT22;7268;50.792;0.252;2023-05-07T13:01:09;19.10;74.10
14370;DHT22;7268;50.792;0.252;2023-05-07T13:03:37;18.80;71.50
14370;DHT22;7268;50.792;0.252;2023-05-07T13:06:07;18.90;73.90
14370;DHT22;7268;50.792;0.252;2023-05-07T13:08:38;18.80;73.00
14370;DHT22;7268;50.792;0.252;2023-05-07T13:11:08;19.00;72.40
14370;DHT22;7268;50.792;0.252;2023-05-07T13:13:37;18.90;74.10
14370;DHT22;7268;50.792;0.252;2023-05-07T13:16:08;18.90;74.60
14370;DHT22;7268;50.792;0.252;2023-05-07T13:18:35;19.20;74.60
14370;DHT22;7268;50.792;0.252;2023-05-07T13:21:05;19.20;73.60
14370;DHT22;7268;50.792;0.252;2023-05-07T13:23:31;19.40;72.60
14370;DHT22;7268;50.792;0.252;2023-05-07T13:25:58;19.40;71.00
14370;DHT22;7268;50.792;0.252;2023-05-07T13:28:32;19.00;70.80
14370;DHT22;7268;50.792;0.252;2023-05-07T13:31:02;18.60;73.60
14370;DHT22;7268;50.792;0.252;2023-05-07T13:33:29;18.70;73.90
14370;DHT22;7268;50.792;0.252;2023-05-07T13:35:56;19.00;73.50
14370;DHT22;7268;50.792;0.252;2023-05-07T13:38:23;19.40;73.70
14370;DHT22;7268;50.792;0.252;2023-05-07T13:40:50;19.50;71.80
14370;DHT22;7268;50.792;0.252;2023-05-07T13:43:17;19.60;71.40
14370;DHT22;7268;50.792;0.252;2023-05-07T13:45:45;19.40;73.10
14370;DHT22;7268;50.792;0.252;2023-05-07T13:48:21;19.20;73.60
14370;DHT22;7268;50.792;0.252;2023-05-07T13:50:51;18.70;74.90
14370;DHT22;7268;50.792;0.252;2023-05-07T13:53:18;18.30;77.00
14370;DHT22;7268;50.792;0.252;2023-05-07T13:55:45;18.00;78.30
14370;DHT22;7268;50.792;0.252;2023-05-07T13:58:12;18.20;77.90
14370;DHT22;7268;50.792;0.252;2023-05-07T14:00:43;18.00;77.50
14370;DHT22;7268;50.792;0.252;2023-05-07T14:03:10;17.90;78.30
14370;DHT22;7268;50.792;0.252;2023-05-07T14:05:38;18.00;78.40
14370;DHT22;7268;50.792;0.252;2023-05-07T14:08:04;17.80;79.30
14370;DHT22;7268;50.792;0.252;2023-05-07T14:10:31;17.80;80.40
14370;DHT22;7268;50.792;0.252;2023-05-07T14:13:01;18.00;78.10
14370;DHT22;7268;50.792;0.252;2023-05-07T14:15:28;17.60;79.10
14370;DHT22;7268;50.792;0.252;2023-05-07T14:17:54;17.60;79.40
14370;DHT22;7268;50.792;0.252;2023-05-07T14:20:21;17.40;80.10
14370;DHT22;7268;50.792;0.252;2023-05-07T14:22:50;17.30;81.80
14370;DHT22;7268;50.792;0.252;2023-05-07T14:25:23;17.40;80.00
14370;DHT22;7268;50.792;0.252;2023-05-07T14:27:50;17.40;81.10
14370;DHT22;7268;50.792;0.252;2023-05-07T14:30:22;17.40;81.40
14370;DHT22;7268;50.792;0.252;2023-05-07T14:32:56;17.50;81.00
14370;DHT22;7268;50.792;0.252;2023-05-07T14:35:23;18.00;80.20
14370;DHT22;7268;50.792;0.252;2023-05-07T14:38:00;18.20;77.90
14370;DHT22;7268;50.792;0.252;2023-05-07T14:40:40;18.40;77.80
14370;DHT22;7268;50.792;0.252;2023-05-07T14:43:28;18.80;78.00
14370;DHT22;7268;50.792;0.252;2023-05-07T14:45:57;18.80;76.20
14370;DHT22;7268;50.792;0.252;2023-05-07T14:48:30;18.80;75.60
14370;DHT22;7268;50.792;0.252;2023-05-07T14:50:58;18.70;76.70
14370;DHT22;7268;50.792;0.252;2023-05-07T14:53:26;18.60;76.60
14370;DHT22;7268;50.792;0.252;2023-05-07T14:55:55;18.40;76.60
14370;DHT22;7268;50.792;0.252;2023-05-07T14:58:22;18.40;77.40
14370;DHT22;7268;50.792;0.252;2023-05-07T15:00:49;18.30;77.10
14370;DHT22;7268;50.792;0.252;2023-05-07T15:03:16;17.90;78.50
14370;DHT22;7268;50.792;0.252;2023-05-07T15:05:44;17.80;79.10
14370;DHT22;7268;50.792;0.252;2023-05-07T15:08:11;17.70;79.80
14370;DHT22;7268;50.792;0.252;2023-05-07T15:10:39;17.70;81.80
14370;DHT22;7268;50.792;0.252;2023-05-07T15:13:10;17.80;81.10
14370;DHT22;7268;50.792;0.252;2023-05-07T15:15:42;17.80;81.00
14370;DHT22;7268;50.792;0.252;2023-05-07T15:18:10;18.00;80.40
14370;DHT22;7268;50.792;0.252;2023-05-07T15:20:40;18.00;78.90
14370;DHT22;7268;50.792;0.252;2023-05-07T15:23:08;17.90;79.90
14370;DHT22;7268;50.792;0.252;2023-05-07T15:25:47;18.00;80.70
14370;DHT22;7268;50.792;0.252;2023-05-07T15:28:18;18.00;79.90
14370;DHT22;7268;50.792;0.252;2023-05-07T15:30:45;18.10;78.70
14370;DHT22;7268;50.792;0.252;2023-05-07T15:33:12;18.10;79.20
14370;DHT22;7268;50.792;0.252;2023-05-07T15:35:40;18.10;79.10
14370;DHT22;7268;50.792;0.252;2023-05-07T15:38:07;18.00;79.30
14370;DHT22;7268;50.792;0.252;2023-05-07T15:40:35;17.90;79.10
14370;DHT22;7268;50.792;0.252;2023-05-07T15:43:04;18.00;80.20
14370;DHT22;7268;50.792;0.252;2023-05-07T15:45:31;18.10;79.90
14370;DHT22;7268;50.792;0.252;2023-05-07T15:47:58;18.10;80.00
14370;DHT22;7268;50.792;0.252;2023-05-07T15:50:28;17.90;80.30
14370;DHT22;7268;50.792;0.252;2023-05-07T15:52:57;17.60;80.20
14370;DHT22;7268;50.792;0.252;2023-05-07T15:55:25;17.50;81.10
14370;DHT22;7268;50.792;0.252;2023-05-07T15:57:53;17.30;81.50
14370;DHT22;7268;50.792;0.252;2023-05-07T16:00:21;17.10;82.10
14370;DHT22;7268;50.792;0.252;2023-05-07T16:02:53;17.00;82.50
14370;DHT22;7268;50.792;0.252;2023-05-07T16:05:20;16.90;82.50
14370;DHT22;7268;50.792;0.252;2023-05-07T16:07:47;16.80;82.30
14370;DHT22;7268;50.792;0.252;2023-05-07T16:10:14;16.80;83.10
14370;DHT22;7268;50.792;0.252;2023-05-07T16:12:44;16.80;83.40
14370;DHT22;7268;50.792;0.252;2023-05-07T16:15:11;16.60;83.50
14370;DHT22;7268;50.792;0.252;2023-05-07T16:17:39;16.50;83.40
14370;DHT22;7268;50.792;0.252;2023-05-07T16:20:06;16.40;83.50
14370;DHT22;7268;50.792;0.252;2023-05-07T16:22:34;16.20;83.90
14370;DHT22;7268;50.792;0.252;2023-05-07T16:25:02;16.10;84.40
14370;DHT22;7268;50.792;0.252;2023-05-07T16:27:33;16.00;84.40
14370;DHT22;7268;50.792;0.252;2023-05-07T16:30:06;16.00;84.80
14370;DHT22;7268;50.792;0.252;2023-05-07T16:32:35;15.90;85.00
14370;DHT22;7268;50.792;0.252;2023-05-07T16:35:08;16.00;84.70
14370;DHT22;7268;50.792;0.252;2023-05-07T16:37:35;15.90;85.60
14370;DHT22;7268;50.792;0.252;2023-05-07T16:40:02;16.00;84.90
14370;DHT22;7268;50.792;0.252;2023-05-07T16:42:36;15.80;84.80
14370;DHT22;7268;50.792;0.252;2023-05-07T16:45:05;15.80;85.60
14370;DHT22;7268;50.792;0.252;2023-05-07T16:47:32;15.70;85.40
14370;DHT22;7268;50.792;0.252;2023-05-07T16:50:01;15.70;85.40
14370;DHT22;7268;50.792;0.252;2023-05-07T16:52:34;15.50;85.50
14370;DHT22;7268;50.792;0.252;2023-05-07T16:55:03;15.40;86.40
14370;DHT22;7268;50.792;0.252;2023-05-07T16:57:30;15.30;86.80
14370;DHT22;7268;50.792;0.252;2023-05-07T16:59:57;15.20;86.70